Time;durP1;ratioP1;P1;durP2;ratioP2;P2;SDS_P1;SDS_P2;PMS_P1;PMS_P2;Temp;Humidity;BMP_temperature;BMP_pressure;BME280_temperature;BME280_humidity;BME280_pressure;Samples;Min_cycle;Max_cycle;Signal;HPM_P1;HPM_P2
2022/01/06 00:00:10;;;;;;;16.53;11.80;;;;;;;;;;5014402;28;20168;-89
2022/01/06 00:02:36;;;;;;;21.25;11.75;;;;;;;;;;5020825;28;20175;-89
2022/01/06 00:05:03;;;;;;;16.27;11.73;;;;;;;;;;5032657;28;20045;-88
2022/01/06 00:07:30;;;;;;;19.98;12.35;;;;;;;;;;5022893;28;20108;-87
2022/01/06 00:09:57;;;;;;;18.55;10.90;;;;;;;;;;5027539;28;20041;-84
2022/01/06 00:12:30;;;;;;;21.88;10.48;;;;;;;;;;5034026;28;20107;-85
2022/01/06 00:18:08;;;;;;;16.58;10.45;;;;;;;;;;5042614;28;20076;-85
2022/01/06 00:25:50;;;;;;;15.88;10.60;;;;;;;;;;5033771;28;20041;-83
2022/01/06 00:28:17;;;;;;;16.23;11.20;;;;;;;;;;5033776;28;20053;-85
2022/01/06 00:30:43;;;;;;;16.70;10.75;;;;;;;;;;5019899;28;20045;-85
2022/01/06 00:33:10;;;;;;;17.98;10.82;;;;;;;;;;5033228;28;20045;-84
2022/01/06 00:35:38;;;;;;;21.85;10.98;;;;;;;;;;5033172;28;20057;-85
2022/01/06 00:38:08;;;;;;;17.52;10.68;;;;;;;;;;5034001;28;20056;-84
2022/01/06 00:40:35;;;;;;;17.92;11.00;;;;;;;;;;5032557;28;20049;-83
2022/01/06 00:43:03;;;;;;;16.73;11.10;;;;;;;;;;5033811;28;20053;-82
2022/01/06 00:45:29;;;;;;;;;;;;;;;;;;5032859;28;20400;-82
2022/01/06 00:47:56;;;;;;;14.73;10.77;;;;;;;;;;5032334;28;19971;-82
2022/01/06 00:50:22;;;;;;;19.90;10.65;;;;;;;;;;5033528;28;20049;-82
2022/01/06 00:52:49;;;;;;;17.23;10.48;;;;;;;;;;5033385;28;20068;-83
2022/01/06 00:55:15;;;;;;;16.63;10.45;;;;;;;;;;5033320;28;20053;-83
2022/01/06 00:57:42;;;;;;;15.80;11.75;;;;;;;;;;5033504;28;20049;-83
2022/01/06 01:00:09;;;;;;;16.63;10.27;;;;;;;;;;5033323;28;20057;-83
2022/01/06 01:02:36;;;;;;;18.48;10.93;;;;;;;;;;5018187;28;20085;-83
2022/01/06 01:05:03;;;;;;;14.65;9.93;;;;;;;;;;5019408;28;20363;-83
2022/01/06 01:07:29;;;;;;;20.10;11.60;;;;;;;;;;5033292;28;20452;-83
2022/01/06 01:09:56;;;;;;;22.73;13.73;;;;;;;;;;5031748;28;20064;-82
2022/01/06 01:12:25;;;;;;;20.27;12.50;;;;;;;;;;5033070;28;20049;-82
2022/01/06 01:15:05;;;;;;;20.40;12.00;;;;;;;;;;5031698;28;20050;-82
2022/01/06 01:17:31;;;;;;;19.40;11.75;;;;;;;;;;5031960;28;20456;-82
2022/01/06 01:19:58;;;;;;;20.63;12.00;;;;;;;;;;5033106;28;20088;-83
2022/01/06 01:22:24;;;;;;;24.65;11.18;;;;;;;;;;5032869;28;20123;-83
2022/01/06 01:24:51;;;;;;;16.05;9.85;;;;;;;;;;5032579;28;20065;-86
2022/01/06 01:27:21;;;;;;;19.48;10.88;;;;;;;;;;5032768;28;20053;-84
2022/01/06 01:29:58;;;;;;;17.63;11.60;;;;;;;;;;5031790;28;20049;-83
2022/01/06 01:32:31;;;;;;;19.33;10.32;;;;;;;;;;5031504;28;20494;-83
2022/01/06 01:35:01;;;;;;;18.17;11.48;;;;;;;;;;5032583;28;20473;-84
2022/01/06 01:37:28;;;;;;;19.13;11.75;;;;;;;;;;5031548;28;20057;-83
2022/01/06 01:39:55;;;;;;;15.93;11.63;;;;;;;;;;5032588;28;20053;-84
2022/01/06 01:42:21;;;;;;;20.15;11.20;;;;;;;;;;5032507;28;20340;-83
2022/01/06 01:44:49;;;;;;;17.20;11.18;;;;;;;;;;5020990;28;20061;-83
2022/01/06 01:47:23;;;;;;;18.50;11.45;;;;;;;;;;5030295;28;20096;-83
2022/01/06 01:49:54;;;;;;;19.35;12.02;;;;;;;;;;5031458;28;20049;-83
2022/01/06 01:52:21;;;;;;;15.77;11.20;;;;;;;;;;5032499;28;20053;-83
2022/01/06 01:54:47;;;;;;;19.20;10.43;;;;;;;;;;5032484;28;20053;-84
2022/01/06 01:57:13;;;;;;;17.40;11.20;;;;;;;;;;5032252;28;20160;-84
2022/01/06 01:59:40;;;;;;;20.83;12.35;;;;;;;;;;5032371;28;20050;-84
2022/01/06 02:02:08;;;;;;;18.13;11.23;;;;;;;;;;5032102;28;20061;-84
2022/01/06 02:04:34;;;;;;;;;;;;;;;;;;5031140;28;20513;-84
2022/01/06 02:07:02;;;;;;;16.55;11.57;;;;;;;;;;5032065;28;19925;-85
2022/01/06 02:09:29;;;;;;;16.83;11.77;;;;;;;;;;5032247;28;20455;-83
2022/01/06 02:11:55;;;;;;;17.58;10.52;;;;;;;;;;5031989;28;20053;-83
2022/01/06 02:14:25;;;;;;;19.50;12.45;;;;;;;;;;5032193;28;20061;-82
2022/01/06 02:16:53;;;;;;;21.33;12.23;;;;;;;;;;5031791;28;20045;-82
2022/01/06 02:19:20;;;;;;;19.27;10.98;;;;;;;;;;5030854;28;20055;-83
2022/01/06 02:21:46;;;;;;;18.80;11.65;;;;;;;;;;5032042;28;20065;-83
2022/01/06 02:24:13;;;;;;;15.73;10.30;;;;;;;;;;5032147;28;20490;-84
2022/01/06 02:26:39;;;;;;;16.95;11.15;;;;;;;;;;5031902;28;20119;-82
2022/01/06 02:29:07;;;;;;;16.98;11.57;;;;;;;;;;5031938;28;20046;-84
2022/01/06 02:31:46;;;;;;;17.40;11.00;;;;;;;;;;5031677;28;20045;-83
2022/01/06 02:34:12;;;;;;;16.27;10.60;;;;;;;;;;5032043;28;20139;-82
2022/01/06 02:36:39;;;;;;;16.08;10.63;;;;;;;;;;5031664;28;20386;-85
2022/01/06 02:39:05;;;;;;;18.65;11.25;;;;;;;;;;5031639;28;20493;-83
2022/01/06 02:41:32;;;;;;;16.48;10.88;;;;;;;;;;5031807;28;20053;-84
2022/01/06 02:44:00;;;;;;;18.15;11.25;;;;;;;;;;5031506;28;20501;-83
2022/01/06 02:46:27;;;;;;;15.98;9.88;;;;;;;;;;5031794;28;20485;-83
2022/01/06 02:48:53;;;;;;;16.73;10.60;;;;;;;;;;5031610;28;20390;-83
2022/01/06 02:51:20;;;;;;;14.23;10.40;;;;;;;;;;5031800;28;20437;-83
2022/01/06 02:53:50;;;;;;;14.90;8.75;;;;;;;;;;5031436;28;20567;-83
2022/01/06 02:56:17;;;;;;;17.60;10.50;;;;;;;;;;5031388;28;20103;-87
2022/01/06 02:58:43;;;;;;;17.13;10.35;;;;;;;;;;5034895;28;20505;-85
2022/01/06 03:01:09;;;;;;;18.42;10.80;;;;;;;;;;5035509;28;20065;-85
2022/01/06 03:03:36;;;;;;;17.02;10.48;;;;;;;;;;5036241;28;20076;-84
2022/01/06 03:06:03;;;;;;;15.48;9.88;;;;;;;;;;5035316;28;20045;-84
2022/01/06 03:08:29;;;;;;;15.45;10.00;;;;;;;;;;5035546;28;20095;-83
2022/01/06 03:10:57;;;;;;;20.75;12.90;;;;;;;;;;5035020;28;20100;-83
2022/01/06 03:13:23;;;;;;;19.63;13.43;;;;;;;;;;5035077;28;20045;-83
2022/01/06 03:15:50;;;;;;;16.73;11.27;;;;;;;;;;5035409;28;20099;-83
2022/01/06 03:18:16;;;;;;;15.98;11.32;;;;;;;;;;5033880;28;20053;-83
2022/01/06 03:20:43;;;;;;;19.38;11.02;;;;;;;;;;5035578;28;20045;-87
2022/01/06 03:23:09;;;;;;;18.65;11.98;;;;;;;;;;5035233;28;20064;-85
2022/01/06 03:25:36;;;;;;;18.23;10.93;;;;;;;;;;5035198;28;20053;-85
2022/01/06 03:28:02;;;;;;;16.83;11.43;;;;;;;;;;5035143;28;20049;-86
2022/01/06 03:30:28;;;;;;;18.75;11.52;;;;;;;;;;5035092;28;20472;-85
2022/01/06 03:32:55;;;;;;;17.23;11.05;;;;;;;;;;5033993;28;20045;-85
2022/01/06 03:35:23;;;;;;;18.20;11.60;;;;;;;;;;5034850;28;20080;-85
2022/01/06 03:37:49;;;;;;;20.00;11.38;;;;;;;;;;5035043;28;20108;-85
2022/01/06 03:40:16;;;;;;;14.45;10.77;;;;;;;;;;5034930;28;20100;-85
2022/01/06 03:42:42;;;;;;;18.88;11.25;;;;;;;;;;5034972;28;20123;-85
2022/01/06 03:45:11;;;;;;;18.25;11.25;;;;;;;;;;5034508;28;20057;-85
2022/01/06 03:47:37;;;;;;;17.08;10.77;;;;;;;;;;5033368;28;20045;-86
2022/01/06 03:50:04;;;;;;;19.58;11.00;;;;;;;;;;5034868;28;20075;-85
2022/01/06 03:52:31;;;;;;;19.23;11.20;;;;;;;;;;5034607;28;20087;-85
2022/01/06 03:54:57;;;;;;;18.98;10.77;;;;;;;;;;5034829;28;20398;-85
2022/01/06 03:57:24;;;;;;;19.48;11.60;;;;;;;;;;5030387;28;20053;-84
2022/01/06 03:59:50;;;;;;;19.10;11.38;;;;;;;;;;5024802;28;20485;-85
2022/01/06 04:02:17;;;;;;;17.67;11.10;;;;;;;;;;5034268;28;20057;-86
2022/01/06 04:04:43;;;;;;;18.25;10.73;;;;;;;;;;5034300;28;20057;-84
2022/01/06 04:07:10;;;;;;;14.98;9.95;;;;;;;;;;5034233;28;20053;-84
2022/01/06 04:09:36;;;;;;;16.40;10.77;;;;;;;;;;5034048;28;20564;-83
2022/01/06 04:12:03;;;;;;;15.50;10.07;;;;;;;;;;5034389;28;20050;-85
2022/01/06 04:14:29;;;;;;;17.73;11.07;;;;;;;;;;5034137;28;20072;-84
2022/01/06 04:16:59;;;;;;;16.13;10.50;;;;;;;;;;5034117;28;20049;-83
2022/01/06 04:19:26;;;;;;;16.20;10.30;;;;;;;;;;5034149;28;20045;-84
2022/01/06 04:21:52;;;;;;;15.40;9.48;;;;;;;;;;5034058;28;20049;-84
2022/01/06 04:24:19;;;;;;;15.55;9.90;;;;;;;;;;5033870;28;20092;-84
2022/01/06 04:26:45;;;;;;;15.43;8.60;;;;;;;;;;5034205;28;20401;-84
2022/01/06 04:29:12;;;;;;;14.68;8.15;;;;;;;;;;5032669;28;20049;-83
2022/01/06 04:31:38;;;;;;;12.95;8.70;;;;;;;;;;5032618;28;20046;-83
2022/01/06 04:34:05;;;;;;;15.82;8.63;;;;;;;;;;5033767;28;20050;-84
2022/01/06 04:36:31;;;;;;;14.15;8.20;;;;;;;;;;5033885;28;20049;-84
2022/01/06 04:38:58;;;;;;;11.82;8.50;;;;;;;;;;5032647;28;20050;-84
2022/01/06 04:41:24;;;;;;;14.48;8.85;;;;;;;;;;5033838;28;20119;-84
2022/01/06 04:43:51;;;;;;;13.32;8.23;;;;;;;;;;5033573;28;20562;-84
2022/01/06 04:46:19;;;;;;;14.25;8.23;;;;;;;;;;5033518;28;20416;-85
2022/01/06 04:48:46;;;;;;;16.85;8.70;;;;;;;;;;5033797;28;20045;-85
2022/01/06 04:51:12;;;;;;;12.77;6.90;;;;;;;;;;5033755;28;20045;-86
2022/01/06 04:53:38;;;;;;;11.93;7.30;;;;;;;;;;5033461;28;20508;-86
2022/01/06 04:56:05;;;;;;;10.90;6.88;;;;;;;;;;5033605;28;20049;-85
2022/01/06 04:58:32;;;;;;;13.10;7.78;;;;;;;;;;5033317;28;20088;-85
2022/01/06 05:00:59;;;;;;;13.30;8.15;;;;;;;;;;5033358;28;20127;-85
2022/01/06 05:03:25;;;;;;;15.27;7.95;;;;;;;;;;5033562;28;20122;-85
2022/01/06 05:05:52;;;;;;;12.98;7.18;;;;;;;;;;5033146;28;20485;-84
2022/01/06 05:08:18;;;;;;;14.57;8.50;;;;;;;;;;5033222;28;20555;-84
2022/01/06 05:10:49;;;;;;;12.90;7.85;;;;;;;;;;5033097;28;20053;-84
2022/01/06 05:13:16;;;;;;;11.07;7.35;;;;;;;;;;5033066;28;20057;-84
2022/01/06 05:15:42;;;;;;;11.38;7.30;;;;;;;;;;5033009;28;20091;-84
2022/01/06 05:18:09;;;;;;;14.15;7.13;;;;;;;;;;5032061;28;20081;-83
2022/01/06 05:20:38;;;;;;;14.85;7.65;;;;;;;;;;5032596;28;20515;-84
2022/01/06 05:23:05;;;;;;;12.50;7.65;;;;;;;;;;5031644;28;20049;-83
2022/01/06 05:25:32;;;;;;;11.23;7.20;;;;;;;;;;5032743;28;20099;-85
2022/01/06 05:27:58;;;;;;;12.18;7.85;;;;;;;;;;5031770;28;20049;-84
2022/01/06 05:30:25;;;;;;;14.98;7.80;;;;;;;;;;5031563;28;20053;-84
2022/01/06 05:32:51;;;;;;;10.70;7.70;;;;;;;;;;5032907;28;20049;-85
2022/01/06 05:35:18;;;;;;;13.40;7.43;;;;;;;;;;5032738;28;20050;-84
2022/01/06 05:37:45;;;;;;;10.23;5.93;;;;;;;;;;5032994;28;20459;-84
2022/01/06 05:40:12;;;;;;;14.05;6.65;;;;;;;;;;5032811;28;20045;-84
2022/01/06 05:42:38;;;;;;;11.65;7.18;;;;;;;;;;5032467;28;20493;-85
2022/01/06 05:45:05;;;;;;;11.38;5.93;;;;;;;;;;5032685;28;20103;-85
2022/01/06 05:47:31;;;;;;;10.98;7.15;;;;;;;;;;5031275;28;20065;-84
2022/01/06 05:49:58;;;;;;;10.90;6.40;;;;;;;;;;5032620;28;20095;-84
2022/01/06 05:52:24;;;;;;;11.60;7.07;;;;;;;;;;5032630;28;20099;-85
2022/01/06 05:54:51;;;;;;;9.57;6.50;;;;;;;;;;5032262;28;20383;-84
2022/01/06 05:57:19;;;;;;;11.18;6.20;;;;;;;;;;5032252;28;20049;-84
2022/01/06 05:59:46;;;;;;;11.15;6.10;;;;;;;;;;5031739;28;20057;-84
2022/01/06 06:02:12;;;;;;;13.23;6.57;;;;;;;;;;5030822;28;20118;-84
2022/01/06 06:04:39;;;;;;;9.02;5.65;;;;;;;;;;5032272;28;20390;-84
2022/01/06 06:07:06;;;;;;;14.63;6.83;;;;;;;;;;5031947;28;20103;-84
2022/01/06 06:09:32;;;;;;;10.82;5.93;;;;;;;;;;5032084;28;20076;-84
2022/01/06 06:11:59;;;;;;;12.57;6.80;;;;;;;;;;5030647;28;20096;-84
2022/01/06 06:14:25;;;;;;;9.48;6.57;;;;;;;;;;5032143;28;20096;-84
2022/01/06 06:16:52;;;;;;;10.75;6.22;;;;;;;;;;5032330;28;20057;-84
2022/01/06 06:19:18;;;;;;;11.32;5.82;;;;;;;;;;5031759;28;20045;-85
2022/01/06 06:21:45;;;;;;;9.75;5.75;;;;;;;;;;5031811;28;20049;-84
2022/01/06 06:24:11;;;;;;;11.57;6.35;;;;;;;;;;5032079;28;20104;-84
2022/01/06 06:26:38;;;;;;;12.23;5.68;;;;;;;;;;5031644;28;20041;-84
2022/01/06 06:29:04;;;;;;;10.05;6.10;;;;;;;;;;5032081;28;20401;-84
2022/01/06 06:31:30;;;;;;;12.48;5.90;;;;;;;;;;5031057;28;20053;-87
2022/01/06 06:33:57;;;;;;;12.63;6.45;;;;;;;;;;5031808;28;20115;-84
2022/01/06 06:36:24;;;;;;;9.10;3.53;;;;;;;;;;5031675;28;20126;-86
2022/01/06 06:38:50;;;;;;;7.38;3.65;;;;;;;;;;5031628;28;20497;-84
2022/01/06 06:41:16;;;;;;;8.88;4.97;;;;;;;;;;5031490;28;20103;-84
2022/01/06 06:43:43;;;;;;;9.40;4.20;;;;;;;;;;5031568;28;20045;-84
2022/01/06 06:46:09;;;;;;;12.15;4.25;;;;;;;;;;5031476;28;20515;-82
2022/01/06 06:48:36;;;;;;;7.53;4.25;;;;;;;;;;5031425;28;20045;-80
2022/01/06 06:51:03;;;;;;;9.35;5.38;;;;;;;;;;5031519;28;20547;-81
2022/01/06 06:53:29;;;;;;;10.88;4.80;;;;;;;;;;5031374;28;20065;-83
2022/01/06 06:55:56;;;;;;;8.05;4.40;;;;;;;;;;5031482;28;20049;-84
2022/01/06 06:58:22;;;;;;;8.90;4.15;;;;;;;;;;5031593;28;20046;-84
2022/01/06 07:00:49;;;;;;;8.60;4.95;;;;;;;;;;5029982;28;20038;-84
2022/01/06 07:03:15;;;;;;;7.75;4.03;;;;;;;;;;5030492;28;20043;-85
2022/01/06 07:05:42;;;;;;;5.78;3.50;;;;;;;;;;5030463;28;20049;-86
2022/01/06 07:08:08;;;;;;;6.65;3.03;;;;;;;;;;5031308;28;20053;-86
2022/01/06 07:10:35;;;;;;;7.00;3.20;;;;;;;;;;5031524;28;20459;-83
2022/01/06 07:13:01;;;;;;;6.20;2.30;;;;;;;;;;5031553;28;20386;-85
2022/01/06 07:15:28;;;;;;;4.03;2.10;;;;;;;;;;5031216;28;20493;-86
2022/01/06 07:17:54;;;;;;;5.97;2.13;;;;;;;;;;5030302;28;20050;-85
2022/01/06 07:20:21;;;;;;;6.20;2.55;;;;;;;;;;5031442;28;20061;-84
2022/01/06 07:22:47;;;;;;;6.47;2.28;;;;;;;;;;5031094;28;20095;-83
2022/01/06 07:25:14;;;;;;;4.40;2.47;;;;;;;;;;5030907;28;20049;-86
2022/01/06 07:27:40;;;;;;;4.25;2.45;;;;;;;;;;5030941;28;20053;-85
2022/01/06 07:30:07;;;;;;;5.40;2.65;;;;;;;;;;5031009;28;20099;-85
2022/01/06 07:32:40;;;;;;;4.07;1.98;;;;;;;;;;5030753;28;20066;-82
2022/01/06 07:35:07;;;;;;;4.35;2.55;;;;;;;;;;5030770;28;20095;-84
2022/01/06 07:37:34;;;;;;;9.82;2.03;;;;;;;;;;5029589;28;20111;-84
2022/01/06 07:40:00;;;;;;;6.97;2.00;;;;;;;;;;5030971;28;20049;-84
2022/01/06 07:42:27;;;;;;;4.15;2.20;;;;;;;;;;5030231;28;20053;-86
2022/01/06 07:44:55;;;;;;;6.00;2.08;;;;;;;;;;5034696;28;20058;-84
2022/01/06 07:47:21;;;;;;;;;;;;;;;;;;5034235;28;20452;-69
2022/01/06 07:49:47;;;;;;;6.05;3.63;;;;;;;;;;5033956;28;19921;-81
2022/01/06 07:52:14;;;;;;;8.00;3.90;;;;;;;;;;5034198;28;20481;-80
2022/01/06 07:54:41;;;;;;;4.90;2.47;;;;;;;;;;5033078;28;20068;-82
2022/01/06 07:57:08;;;;;;;4.30;2.35;;;;;;;;;;5034438;28;20049;-82
2022/01/06 07:59:34;;;;;;;8.52;4.15;;;;;;;;;;5034308;28;20045;-84
2022/01/06 08:02:04;;;;;;;11.45;5.70;;;;;;;;;;5033094;28;20061;-83
2022/01/06 08:04:30;;;;;;;9.25;6.00;;;;;;;;;;5033829;28;20095;-78
2022/01/06 08:06:57;;;;;;;10.10;5.07;;;;;;;;;;5034005;28;20045;-81
2022/01/06 08:09:23;;;;;;;10.23;5.43;;;;;;;;;;5033365;28;20405;-80
2022/01/06 08:11:50;;;;;;;8.77;3.22;;;;;;;;;;5032852;28;20041;-83
2022/01/06 08:14:16;;;;;;;7.57;2.85;;;;;;;;;;5034465;28;20046;-81
2022/01/06 08:16:43;;;;;;;8.27;4.30;;;;;;;;;;5033262;28;20096;-80
2022/01/06 08:19:09;;;;;;;6.72;4.35;;;;;;;;;;5032549;28;20474;-82
2022/01/06 08:21:36;;;;;;;12.52;4.50;;;;;;;;;;5033573;28;20050;-80
2022/01/06 08:24:02;;;;;;;9.50;4.60;;;;;;;;;;5033595;28;20053;-80
2022/01/06 08:26:30;;;;;;;10.43;5.70;;;;;;;;;;5033762;28;20158;-83
2022/01/06 08:28:56;;;;;;;7.35;5.28;;;;;;;;;;5033972;28;20095;-75
2022/01/06 08:31:23;;;;;;;8.40;5.78;;;;;;;;;;5033360;28;20097;-80
2022/01/06 08:33:49;;;;;;;6.07;5.20;;;;;;;;;;5032859;28;20099;-82
2022/01/06 08:36:16;;;;;;;7.82;4.70;;;;;;;;;;5033678;28;20099;-81
2022/01/06 08:38:42;;;;;;;23.90;12.50;;;;;;;;;;5033430;28;20095;-76
2022/01/06 08:41:09;;;;;;;20.17;11.40;;;;;;;;;;5033287;28;20099;-83
2022/01/06 08:43:35;;;;;;;21.67;10.18;;;;;;;;;;5027255;28;20453;-81
2022/01/06 08:46:02;;;;;;;14.98;9.30;;;;;;;;;;5024577;28;20049;-81
2022/01/06 08:48:31;;;;;;;9.20;4.63;;;;;;;;;;5033283;28;20524;-81
2022/01/06 08:50:58;;;;;;;14.60;7.60;;;;;;;;;;5033510;28;20124;-81
2022/01/06 08:53:25;;;;;;;10.80;6.20;;;;;;;;;;5033486;28;20107;-76
2022/01/06 08:55:51;;;;;;;6.25;2.70;;;;;;;;;;5031866;28;20045;-74
2022/01/06 08:58:18;;;;;;;6.38;1.95;;;;;;;;;;5033145;28;20107;-74
2022/01/06 09:00:44;;;;;;;8.95;1.75;;;;;;;;;;5032280;28;20464;-74
2022/01/06 09:03:11;;;;;;;6.43;1.73;;;;;;;;;;5032927;28;20277;-74
2022/01/06 09:05:38;;;;;;;5.47;2.00;;;;;;;;;;5033119;28;20054;-73
2022/01/06 09:08:04;;;;;;;5.85;1.70;;;;;;;;;;5024628;28;20081;-73
2022/01/06 09:10:36;;;;;;;4.22;1.80;;;;;;;;;;5031870;28;20042;-74
2022/01/06 09:13:23;;;;;;;4.63;2.03;;;;;;;;;;5019565;28;20077;-74
2022/01/06 09:15:49;;;;;;;5.85;1.80;;;;;;;;;;5028044;28;20046;-73
2022/01/06 09:18:15;;;;;;;4.85;1.85;;;;;;;;;;5013038;28;20046;-73
2022/01/06 09:20:42;;;;;;;6.47;2.58;;;;;;;;;;5025958;28;20099;-71
2022/01/06 09:23:08;;;;;;;5.50;2.28;;;;;;;;;;5032265;28;20495;-73
2022/01/06 09:25:35;;;;;;;8.02;1.95;;;;;;;;;;5030596;28;20049;-72
2022/01/06 09:28:01;;;;;;;5.88;2.00;;;;;;;;;;5029471;28;20115;-82
2022/01/06 09:30:28;;;;;;;5.95;1.83;;;;;;;;;;5031188;28;20110;-72
2022/01/06 09:32:54;;;;;;;5.68;1.92;;;;;;;;;;5032170;28;20054;-72
2022/01/06 09:35:22;;;;;;;3.25;1.83;;;;;;;;;;5031188;28;20095;-73
2022/01/06 09:37:48;;;;;;;7.77;2.30;;;;;;;;;;5031945;28;20068;-65
2022/01/06 09:40:15;;;;;;;7.05;1.95;;;;;;;;;;5031780;28;20291;-65
2022/01/06 09:42:42;;;;;;;7.20;2.42;;;;;;;;;;5031834;28;20183;-73
2022/01/06 09:45:09;;;;;;;5.53;3.17;;;;;;;;;;5030819;28;20460;-74
2022/01/06 09:47:36;;;;;;;6.75;2.22;;;;;;;;;;5031075;28;20333;-74
2022/01/06 09:50:06;;;;;;;2.05;1.48;;;;;;;;;;5032423;28;20525;-75
2022/01/06 09:52:34;;;;;;;4.65;1.75;;;;;;;;;;5031565;28;20099;-74
2022/01/06 09:55:03;;;;;;;6.32;1.65;;;;;;;;;;5032225;28;20099;-75
2022/01/06 09:57:30;;;;;;;4.38;1.80;;;;;;;;;;5032177;28;20111;-75
2022/01/06 09:59:56;;;;;;;5.82;1.67;;;;;;;;;;5029426;28;20095;-74
2022/01/06 10:02:31;;;;;;;4.68;1.90;;;;;;;;;;5031224;28;20064;-74
2022/01/06 10:04:59;;;;;;;5.03;1.90;;;;;;;;;;5032229;28;20474;-74
2022/01/06 10:07:25;;;;;;;5.65;1.65;;;;;;;;;;5031404;28;20058;-75
2022/01/06 10:09:52;;;;;;;3.95;1.63;;;;;;;;;;5031746;28;20103;-74
2022/01/06 10:12:18;;;;;;;5.10;1.98;;;;;;;;;;5031988;28;20401;-74
2022/01/06 10:14:46;;;;;;;4.45;1.83;;;;;;;;;;5032137;28;20091;-74
2022/01/06 10:17:14;;;;;;;4.05;1.63;;;;;;;;;;5031883;28;20558;-74
2022/01/06 10:19:41;;;;;;;8.32;2.05;;;;;;;;;;5030626;28;20119;-74
2022/01/06 10:22:13;;;;;;;4.65;1.80;;;;;;;;;;5031895;28;20057;-75
2022/01/06 10:24:40;;;;;;;5.43;2.00;;;;;;;;;;5032060;28;20095;-74
2022/01/06 10:27:07;;;;;;;5.60;2.77;;;;;;;;;;5032030;28;20049;-75
2022/01/06 10:29:35;;;;;;;6.43;1.98;;;;;;;;;;5029332;28;20046;-75
2022/01/06 10:32:04;;;;;;;8.63;1.83;;;;;;;;;;5031710;28;20049;-73
2022/01/06 10:34:31;;;;;;;6.57;2.17;;;;;;;;;;5030683;28;20053;-75
2022/01/06 10:36:58;;;;;;;4.55;2.20;;;;;;;;;;5031997;28;20095;-72
2022/01/06 10:39:25;;;;;;;8.00;2.10;;;;;;;;;;5031993;28;20045;-71
2022/01/06 10:41:51;;;;;;;2.72;1.50;;;;;;;;;;5031854;28;20119;-73
2022/01/06 10:44:18;;;;;;;5.82;1.65;;;;;;;;;;5030362;28;20045;-74
2022/01/06 10:46:44;;;;;;;3.10;1.60;;;;;;;;;;5030283;28;20091;-75
2022/01/06 10:49:13;;;;;;;8.23;1.90;;;;;;;;;;5031801;28;20456;-73
2022/01/06 10:51:39;;;;;;;;;;;;;;;;;;5032179;28;20099;-72
2022/01/06 10:54:09;;;;;;;4.93;1.60;;;;;;;;;;5031707;28;20027;-74
2022/01/06 10:56:36;;;;;;;9.32;3.17;;;;;;;;;;5031514;28;20556;-75
2022/01/06 10:59:02;;;;;;;7.30;2.17;;;;;;;;;;5030197;28;20053;-74
2022/01/06 11:01:31;;;;;;;10.73;3.47;;;;;;;;;;5031374;28;20119;-75
2022/01/06 11:03:58;;;;;;;3.28;1.70;;;;;;;;;;5031575;28;20046;-75
2022/01/06 11:06:24;;;;;;;3.42;1.15;;;;;;;;;;5031353;28;20053;-74
2022/01/06 11:08:52;;;;;;;6.75;1.73;;;;;;;;;;5031049;28;20467;-74
2022/01/06 11:11:43;;;;;;;12.23;1.95;;;;;;;;;;5031003;28;20449;-73
2022/01/06 11:14:15;;;;;;;5.00;1.58;;;;;;;;;;5029713;28;20497;-74
2022/01/06 11:16:42;;;;;;;5.50;1.92;;;;;;;;;;5031128;28;20316;-74
2022/01/06 11:19:11;;;;;;;7.40;2.70;;;;;;;;;;5033481;28;20088;-74
2022/01/06 11:21:39;;;;;;;6.63;1.67;;;;;;;;;;5034490;28;20525;-73
2022/01/06 11:24:13;;;;;;;4.88;1.65;;;;;;;;;;5034186;28;20050;-74
2022/01/06 11:26:43;;;;;;;9.07;1.77;;;;;;;;;;5034303;28;20061;-75
2022/01/06 11:29:11;;;;;;;7.25;1.95;;;;;;;;;;5033512;28;20050;-74
2022/01/06 11:31:42;;;;;;;4.30;1.10;;;;;;;;;;5033352;28;20037;-74
2022/01/06 11:34:13;;;;;;;4.97;1.20;;;;;;;;;;5034400;28;20389;-75
2022/01/06 11:36:39;;;;;;;4.15;1.00;;;;;;;;;;5034315;28;20444;-75
2022/01/06 11:39:07;;;;;;;10.70;2.28;;;;;;;;;;5034274;28;20045;-75
2022/01/06 11:41:36;;;;;;;5.28;1.52;;;;;;;;;;5034091;28;20053;-75
2022/01/06 11:44:14;;;;;;;6.65;1.23;;;;;;;;;;5033513;28;20053;-74
2022/01/06 11:46:42;;;;;;;3.67;1.17;;;;;;;;;;5033402;28;20041;-75
2022/01/06 11:49:08;;;;;;;6.03;1.02;;;;;;;;;;5033967;28;20041;-74
2022/01/06 11:51:37;;;;;;;4.57;1.52;;;;;;;;;;5034720;28;20042;-74
2022/01/06 11:54:12;;;;;;;6.13;2.10;;;;;;;;;;5034406;28;20421;-74
2022/01/06 11:56:49;;;;;;;4.22;1.33;;;;;;;;;;5034300;28;20045;-74
2022/01/06 11:59:16;;;;;;;3.80;1.25;;;;;;;;;;5034276;28;20049;-74
2022/01/06 12:01:50;;;;;;;5.33;1.67;;;;;;;;;;5034007;28;20436;-73
2022/01/06 12:04:17;;;;;;;3.08;1.25;;;;;;;;;;5032946;28;20274;-73
2022/01/06 12:06:44;;;;;;;7.40;2.53;;;;;;;;;;5032711;28;20123;-72
2022/01/06 12:09:20;;;;;;;4.65;1.40;;;;;;;;;;5033733;28;20127;-73
2022/01/06 12:11:58;;;;;;;6.85;1.23;;;;;;;;;;5033670;28;20076;-73
2022/01/06 12:14:25;;;;;;;4.97;1.33;;;;;;;;;;5032732;28;20099;-72
2022/01/06 12:16:51;;;;;;;5.03;1.23;;;;;;;;;;5033883;28;20318;-73
2022/01/06 12:19:19;;;;;;;7.88;1.45;;;;;;;;;;5032622;28;20282;-72
2022/01/06 12:21:47;;;;;;;5.95;1.13;;;;;;;;;;5034077;28;20049;-73
2022/01/06 12:24:13;;;;;;;6.97;1.10;;;;;;;;;;5033030;28;20049;-72
2022/01/06 12:26:40;;;;;;;4.20;1.00;;;;;;;;;;5033964;28;20049;-73
2022/01/06 12:29:12;;;;;;;4.50;1.10;;;;;;;;;;5034058;28;20072;-72
2022/01/06 12:31:38;;;;;;;2.55;0.70;;;;;;;;;;5033993;28;20045;-78
2022/01/06 12:34:05;;;;;;;2.85;0.80;;;;;;;;;;5032153;28;20056;-72
2022/01/06 12:36:35;;;;;;;1.95;0.82;;;;;;;;;;5019186;28;20038;-71
2022/01/06 12:39:21;;;;;;;3.67;0.70;;;;;;;;;;5028427;28;20501;-71
2022/01/06 12:41:48;;;;;;;9.40;1.10;;;;;;;;;;5023959;28;20057;-70
2022/01/06 12:44:20;;;;;;;4.75;0.57;;;;;;;;;;5023882;28;20052;-69
2022/01/06 12:46:46;;;;;;;4.97;0.93;;;;;;;;;;5025031;28;20100;-70
2022/01/06 12:49:14;;;;;;;1.25;0.40;;;;;;;;;;5023138;28;20129;-71
2022/01/06 12:51:40;;;;;;;;;;;;;;;;;;5015080;28;20087;-73
2022/01/06 12:54:16;;;;;;;4.47;0.80;;;;;;;;;;5022243;28;19921;-73
2022/01/06 12:56:43;;;;;;;3.90;0.65;;;;;;;;;;5021695;28;20555;-73
2022/01/06 12:59:11;;;;;;;3.38;0.68;;;;;;;;;;5019360;28;20046;-75
2022/01/06 13:01:38;;;;;;;3.97;0.60;;;;;;;;;;5031936;28;20061;-71
2022/01/06 13:04:05;;;;;;;8.48;1.65;;;;;;;;;;5033276;28;20501;-72
2022/01/06 13:06:33;;;;;;;6.07;1.60;;;;;;;;;;5033449;28;20095;-73
2022/01/06 13:08:59;;;;;;;;;;;;;;;;;;5033806;28;20045;-72
2022/01/06 13:11:27;;;;;;;8.57;1.60;;;;;;;;;;5018990;28;19921;-73
2022/01/06 13:13:56;;;;;;;4.22;1.15;;;;;;;;;;5032081;28;20045;-72
2022/01/06 13:16:24;;;;;;;6.38;0.85;;;;;;;;;;5032546;28;20176;-72
2022/01/06 13:18:55;;;;;;;7.95;1.00;;;;;;;;;;5031029;28;20056;-66
2022/01/06 13:21:30;;;;;;;6.00;0.98;;;;;;;;;;5032792;28;20099;-70
2022/01/06 13:23:57;;;;;;;5.63;0.70;;;;;;;;;;5032646;28;20061;-73
2022/01/06 13:26:29;;;;;;;9.43;0.88;;;;;;;;;;5032471;28;20103;-73
2022/01/06 13:28:57;;;;;;;6.95;1.20;;;;;;;;;;5032469;28;20091;-73
2022/01/06 13:31:24;;;;;;;6.15;0.80;;;;;;;;;;5032148;28;20041;-72
2022/01/06 13:33:54;;;;;;;5.65;0.98;;;;;;;;;;5032370;28;20045;-73
2022/01/06 13:36:32;;;;;;;4.93;0.65;;;;;;;;;;5032673;28;20053;-72
2022/01/06 13:38:58;;;;;;;;;;;;;;;;;;5033093;28;20049;-73
2022/01/06 13:41:25;;;;;;;4.07;0.85;;;;;;;;;;5032397;28;19925;-72
2022/01/06 13:43:56;;;;;;;8.18;1.02;;;;;;;;;;5031470;28;20382;-73
2022/01/06 13:46:25;;;;;;;6.72;1.23;;;;;;;;;;5031800;28;20064;-72
2022/01/06 13:51:43;;;;;;;5.93;0.95;;;;;;;;;;5031407;28;20045;-73
2022/01/06 13:54:10;;;;;;;9.35;2.05;;;;;;;;;;5031798;28;20041;-74
2022/01/06 13:56:40;;;;;;;6.85;1.80;;;;;;;;;;5031749;28;20099;-74
2022/01/06 13:59:09;;;;;;;10.25;2.65;;;;;;;;;;5031887;28;20057;-74
2022/01/06 14:01:40;;;;;;;8.65;2.58;;;;;;;;;;5031431;28;20501;-74
2022/01/06 14:04:14;;;;;;;10.40;2.30;;;;;;;;;;5031670;28;20045;-73
2022/01/06 14:06:40;;;;;;;4.13;2.03;;;;;;;;;;5031117;28;20072;-73
2022/01/06 14:09:07;;;;;;;11.32;4.53;;;;;;;;;;5031453;28;20049;-73
2022/01/06 14:11:33;;;;;;;10.23;3.08;;;;;;;;;;5030515;28;20041;-73
2022/01/06 14:14:00;;;;;;;6.53;2.40;;;;;;;;;;5031662;28;20095;-73
2022/01/06 14:16:27;;;;;;;9.03;4.10;;;;;;;;;;5032061;28;20087;-74
2022/01/06 14:18:53;;;;;;;12.20;4.90;;;;;;;;;;5031881;28;20049;-76
2022/01/06 14:21:20;;;;;;;9.38;3.50;;;;;;;;;;5032095;28;20127;-72
2022/01/06 14:23:46;;;;;;;4.90;2.50;;;;;;;;;;5030275;28;20053;-74
2022/01/06 14:26:13;;;;;;;8.35;2.58;;;;;;;;;;5032035;28;20049;-76
2022/01/06 14:28:39;;;;;;;13.20;4.25;;;;;;;;;;5032008;28;20135;-72
2022/01/06 14:31:06;;;;;;;5.65;2.88;;;;;;;;;;5031944;28;20107;-75
2022/01/06 14:33:34;;;;;;;6.53;2.50;;;;;;;;;;5032048;28;20133;-72
2022/01/06 14:36:00;;;;;;;6.55;1.92;;;;;;;;;;5031555;28;20493;-73
2022/01/06 14:38:38;;;;;;;7.30;1.92;;;;;;;;;;5031881;28;20088;-75
2022/01/06 14:41:05;;;;;;;4.32;1.20;;;;;;;;;;5031853;28;20119;-75
2022/01/06 14:43:31;;;;;;;8.02;1.52;;;;;;;;;;5031840;28;20045;-74
2022/01/06 14:45:59;;;;;;;6.55;1.33;;;;;;;;;;5031876;28;20056;-72
2022/01/06 14:48:26;;;;;;;;;;;;;;;;;;5031151;28;20167;-76